sensor_id;sensor_type;location;lat;lon;timestamp;P1;durP1;ratioP1;P2;durP2;ratioP2
18818;SDS011;9537;45.594;9.294;2023-06-26T00:00:57;4.13;;;3.42;;
18818;SDS011;9537;45.594;9.294;2023-06-26T00:01:58;5.30;;;3.28;;
18818;SDS011;9537;45.594;9.294;2023-06-26T00:02:59;5.55;;;3.35;;
18818;SDS011;9537;45.594;9.294;2023-06-26T00:04:00;4.43;;;3.35;;
18818;SDS011;9537;45.594;9.294;2023-06-26T00:05:02;6.20;;;3.50;;
18818;SDS011;9537;45.594;9.294;2023-06-26T00:06:04;4.95;;;3.40;;
18818;SDS011;9537;45.594;9.294;2023-06-26T00:07:06;7.43;;;3.28;;
18818;SDS011;9537;45.594;9.294;2023-06-26T00:08:06;5.22;;;3.28;;
18818;SDS011;9537;45.594;9.294;2023-06-26T00:09:08;4.07;;;3.40;;
18818;SDS011;9537;45.594;9.294;2023-06-26T00:10:09;4.25;;;3.72;;
18818;SDS011;9537;45.594;9.294;2023-06-26T00:11:11;5.78;;;3.70;;
18818;SDS011;9537;45.594;9.294;2023-06-26T00:12:11;3.88;;;3.50;;
18818;SDS011;9537;45.594;9.294;2023-06-26T00:13:13;3.20;;;2.90;;
18818;SDS011;9537;45.594;9.294;2023-06-26T00:14:16;7.93;;;3.55;;
18818;SDS011;9537;45.594;9.294;2023-06-26T00:15:19;3.70;;;3.22;;
18818;SDS011;9537;45.594;9.294;2023-06-26T00:16:19;6.03;;;3.55;;
18818;SDS011;9537;45.594;9.294;2023-06-26T00:17:21;3.92;;;3.53;;
18818;SDS011;9537;45.594;9.294;2023-06-26T00:18:22;5.60;;;3.60;;
18818;SDS011;9537;45.594;9.294;2023-06-26T00:19:24;4.50;;;3.30;;
18818;SDS011;9537;45.594;9.294;2023-06-26T00:20:25;3.65;;;3.35;;
18818;SDS011;9537;45.594;9.294;2023-06-26T00:21:26;3.22;;;2.92;;
18818;SDS011;9537;45.594;9.294;2023-06-26T00:22:28;4.43;;;3.25;;
18818;SDS011;9537;45.594;9.294;2023-06-26T00:23:29;3.53;;;3.22;;
18818;SDS011;9537;45.594;9.294;2023-06-26T00:24:31;4.32;;;3.67;;
18818;SDS011;9537;45.594;9.294;2023-06-26T00:25:32;5.47;;;3.58;;
18818;SDS011;9537;45.594;9.294;2023-06-26T00:26:33;6.45;;;3.30;;
18818;SDS011;9537;45.594;9.294;2023-06-26T00:27:35;4.28;;;3.80;;
18818;SDS011;9537;45.594;9.294;2023-06-26T00:28:35;4.88;;;3.20;;
18818;SDS011;9537;45.594;9.294;2023-06-26T00:29:38;3.67;;;3.28;;
18818;SDS011;9537;45.594;9.294;2023-06-26T00:30:39;4.22;;;3.30;;
18818;SDS011;9537;45.594;9.294;2023-06-26T00:31:41;6.78;;;3.63;;
18818;SDS011;9537;45.594;9.294;2023-06-26T00:32:41;4.20;;;3.70;;
18818;SDS011;9537;45.594;9.294;2023-06-26T00:33:43;4.93;;;3.40;;
18818;SDS011;9537;45.594;9.294;2023-06-26T00:34:44;6.35;;;3.65;;
18818;SDS011;9537;45.594;9.294;2023-06-26T00:35:46;4.30;;;3.50;;
18818;SDS011;9537;45.594;9.294;2023-06-26T00:36:47;5.10;;;3.47;;
18818;SDS011;9537;45.594;9.294;2023-06-26T00:37:49;3.60;;;3.25;;
18818;SDS011;9537;45.594;9.294;2023-06-26T00:38:50;4.15;;;3.30;;
18818;SDS011;9537;45.594;9.294;2023-06-26T00:39:51;5.00;;;3.47;;
18818;SDS011;9537;45.594;9.294;2023-06-26T00:40:52;5.82;;;3.30;;
18818;SDS011;9537;45.594;9.294;2023-06-26T00:41:54;4.28;;;3.75;;
18818;SDS011;9537;45.594;9.294;2023-06-26T00:42:55;3.67;;;3.33;;
18818;SDS011;9537;45.594;9.294;2023-06-26T00:43:57;3.65;;;3.33;;
18818;SDS011;9537;45.594;9.294;2023-06-26T00:44:59;5.03;;;3.53;;
18818;SDS011;9537;45.594;9.294;2023-06-26T00:46:00;4.22;;;3.17;;
18818;SDS011;9537;45.594;9.294;2023-06-26T00:47:01;4.82;;;3.60;;
18818;SDS011;9537;45.594;9.294;2023-06-26T00:48:03;3.72;;;3.33;;
18818;SDS011;9537;45.594;9.294;2023-06-26T00:49:05;3.90;;;3.50;;
18818;SDS011;9537;45.594;9.294;2023-06-26T00:50:07;4.60;;;4.10;;
18818;SDS011;9537;45.594;9.294;2023-06-26T00:51:09;3.70;;;3.30;;
18818;SDS011;9537;45.594;9.294;2023-06-26T00:52:11;3.78;;;3.33;;
18818;SDS011;9537;45.594;9.294;2023-06-26T00:53:11;4.35;;;3.67;;
18818;SDS011;9537;45.594;9.294;2023-06-26T00:54:13;5.53;;;3.67;;
18818;SDS011;9537;45.594;9.294;2023-06-26T00:55:20;3.97;;;3.38;;
18818;SDS011;9537;45.594;9.294;2023-06-26T00:56:21;3.58;;;3.28;;
18818;SDS011;9537;45.594;9.294;2023-06-26T00:57:22;4.40;;;3.50;;
18818;SDS011;9537;45.594;9.294;2023-06-26T00:58:24;3.28;;;2.97;;
18818;SDS011;9537;45.594;9.294;2023-06-26T00:59:25;4.32;;;3.47;;
18818;SDS011;9537;45.594;9.294;2023-06-26T01:00:28;4.05;;;3.15;;
18818;SDS011;9537;45.594;9.294;2023-06-26T01:01:29;3.92;;;3.42;;
18818;SDS011;9537;45.594;9.294;2023-06-26T01:02:31;4.57;;;3.83;;
18818;SDS011;9537;45.594;9.294;2023-06-26T01:03:33;4.38;;;3.25;;
18818;SDS011;9537;45.594;9.294;2023-06-26T01:04:37;4.22;;;3.15;;
18818;SDS011;9537;45.594;9.294;2023-06-26T01:05:46;5.00;;;3.63;;
18818;SDS011;9537;45.594;9.294;2023-06-26T01:06:49;4.55;;;3.42;;
18818;SDS011;9537;45.594;9.294;2023-06-26T01:07:52;3.95;;;3.30;;
18818;SDS011;9537;45.594;9.294;2023-06-26T01:08:55;6.60;;;3.67;;
18818;SDS011;9537;45.594;9.294;2023-06-26T01:09:55;4.28;;;3.55;;
18818;SDS011;9537;45.594;9.294;2023-06-26T01:10:57;3.60;;;3.30;;
18818;SDS011;9537;45.594;9.294;2023-06-26T01:11:59;6.18;;;3.35;;
18818;SDS011;9537;45.594;9.294;2023-06-26T01:13:01;4.47;;;3.47;;
18818;SDS011;9537;45.594;9.294;2023-06-26T01:14:02;3.20;;;2.90;;
18818;SDS011;9537;45.594;9.294;2023-06-26T01:15:04;4.47;;;3.25;;
18818;SDS011;9537;45.594;9.294;2023-06-26T01:16:07;4.88;;;3.85;;
18818;SDS011;9537;45.594;9.294;2023-06-26T01:17:10;3.85;;;3.40;;
18818;SDS011;9537;45.594;9.294;2023-06-26T01:18:13;3.20;;;2.88;;
18818;SDS011;9537;45.594;9.294;2023-06-26T01:19:18;4.50;;;3.53;;
18818;SDS011;9537;45.594;9.294;2023-06-26T01:20:25;5.07;;;3.45;;
18818;SDS011;9537;45.594;9.294;2023-06-26T01:21:27;4.20;;;3.60;;
18818;SDS011;9537;45.594;9.294;2023-06-26T01:22:34;4.97;;;3.25;;
18818;SDS011;9537;45.594;9.294;2023-06-26T01:23:51;5.03;;;3.40;;
18818;SDS011;9537;45.594;9.294;2023-06-26T01:25:08;4.25;;;3.30;;
18818;SDS011;9537;45.594;9.294;2023-06-26T01:26:20;3.88;;;3.10;;
18818;SDS011;9537;45.594;9.294;2023-06-26T01:27:22;5.50;;;3.67;;
18818;SDS011;9537;45.594;9.294;2023-06-26T01:28:25;8.88;;;3.80;;
18818;SDS011;9537;45.594;9.294;2023-06-26T01:29:28;5.72;;;3.53;;
18818;SDS011;9537;45.594;9.294;2023-06-26T01:30:32;4.78;;;3.58;;
18818;SDS011;9537;45.594;9.294;2023-06-26T01:31:34;5.63;;;3.78;;
18818;SDS011;9537;45.594;9.294;2023-06-26T01:32:35;3.92;;;3.38;;
18818;SDS011;9537;45.594;9.294;2023-06-26T01:33:38;5.07;;;3.85;;
18818;SDS011;9537;45.594;9.294;2023-06-26T01:34:39;5.30;;;3.80;;
18818;SDS011;9537;45.594;9.294;2023-06-26T01:35:41;4.65;;;3.35;;
18818;SDS011;9537;45.594;9.294;2023-06-26T01:36:42;3.85;;;3.40;;
18818;SDS011;9537;45.594;9.294;2023-06-26T01:37:46;4.75;;;3.33;;
18818;SDS011;9537;45.594;9.294;2023-06-26T01:38:47;4.30;;;3.75;;
18818;SDS011;9537;45.594;9.294;2023-06-26T01:39:49;3.92;;;3.53;;
18818;SDS011;9537;45.594;9.294;2023-06-26T01:40:50;4.53;;;3.45;;
18818;SDS011;9537;45.594;9.294;2023-06-26T01:41:53;4.90;;;3.50;;
18818;SDS011;9537;45.594;9.294;2023-06-26T01:42:54;3.53;;;3.00;;
18818;SDS011;9537;45.594;9.294;2023-06-26T01:44:07;5.10;;;3.42;;
18818;SDS011;9537;45.594;9.294;2023-06-26T01:45:21;4.35;;;3.38;;
18818;SDS011;9537;45.594;9.294;2023-06-26T01:46:27;4.07;;;3.50;;
18818;SDS011;9537;45.594;9.294;2023-06-26T01:47:34;4.00;;;3.60;;
18818;SDS011;9537;45.594;9.294;2023-06-26T01:48:40;4.00;;;3.60;;
18818;SDS011;9537;45.594;9.294;2023-06-26T01:49:51;4.80;;;3.67;;
18818;SDS011;9537;45.594;9.294;2023-06-26T01:50:56;3.90;;;3.40;;
18818;SDS011;9537;45.594;9.294;2023-06-26T01:52:02;4.30;;;3.72;;
18818;SDS011;9537;45.594;9.294;2023-06-26T01:53:08;5.03;;;3.85;;
18818;SDS011;9537;45.594;9.294;2023-06-26T01:54:15;4.15;;;3.75;;
18818;SDS011;9537;45.594;9.294;2023-06-26T01:55:20;4.70;;;3.65;;
18818;SDS011;9537;45.594;9.294;2023-06-26T01:56:25;4.80;;;3.85;;
18818;SDS011;9537;45.594;9.294;2023-06-26T01:57:30;4.35;;;3.95;;
18818;SDS011;9537;45.594;9.294;2023-06-26T01:58:32;4.10;;;3.10;;
18818;SDS011;9537;45.594;9.294;2023-06-26T01:59:34;3.80;;;3.47;;
18818;SDS011;9537;45.594;9.294;2023-06-26T02:00:36;4.35;;;3.50;;
18818;SDS011;9537;45.594;9.294;2023-06-26T02:01:37;3.92;;;3.40;;
18818;SDS011;9537;45.594;9.294;2023-06-26T02:02:40;6.53;;;3.80;;
18818;SDS011;9537;45.594;9.294;2023-06-26T02:03:41;5.65;;;3.83;;
18818;SDS011;9537;45.594;9.294;2023-06-26T02:04:42;8.00;;;3.75;;
18818;SDS011;9537;45.594;9.294;2023-06-26T02:05:43;3.83;;;3.42;;
18818;SDS011;9537;45.594;9.294;2023-06-26T02:06:45;3.50;;;3.20;;
18818;SDS011;9537;45.594;9.294;2023-06-26T02:07:46;4.15;;;3.60;;
18818;SDS011;9537;45.594;9.294;2023-06-26T02:08:48;4.05;;;3.35;;
18818;SDS011;9537;45.594;9.294;2023-06-26T02:09:48;4.63;;;3.75;;
18818;SDS011;9537;45.594;9.294;2023-06-26T02:10:50;3.72;;;3.35;;
18818;SDS011;9537;45.594;9.294;2023-06-26T02:11:51;5.38;;;3.40;;
18818;SDS011;9537;45.594;9.294;2023-06-26T02:12:54;5.60;;;3.50;;
18818;SDS011;9537;45.594;9.294;2023-06-26T02:13:54;4.88;;;3.58;;
18818;SDS011;9537;45.594;9.294;2023-06-26T02:14:56;3.78;;;3.35;;
18818;SDS011;9537;45.594;9.294;2023-06-26T02:15:57;3.90;;;3.50;;
18818;SDS011;9537;45.594;9.294;2023-06-26T02:16:59;6.15;;;3.30;;
18818;SDS011;9537;45.594;9.294;2023-06-26T02:18:00;4.70;;;3.78;;
18818;SDS011;9537;45.594;9.294;2023-06-26T02:19:02;4.15;;;3.75;;
18818;SDS011;9537;45.594;9.294;2023-06-26T02:20:02;4.35;;;3.30;;
18818;SDS011;9537;45.594;9.294;2023-06-26T02:21:05;4.22;;;3.53;;
18818;SDS011;9537;45.594;9.294;2023-06-26T02:22:06;6.57;;;3.78;;
18818;SDS011;9537;45.594;9.294;2023-06-26T02:23:07;5.05;;;3.60;;
18818;SDS011;9537;45.594;9.294;2023-06-26T02:24:08;3.80;;;3.42;;
18818;SDS011;9537;45.594;9.294;2023-06-26T02:25:10;3.60;;;3.30;;
18818;SDS011;9537;45.594;9.294;2023-06-26T02:26:12;4.65;;;3.10;;
18818;SDS011;9537;45.594;9.294;2023-06-26T02:27:13;4.90;;;3.30;;
18818;SDS011;9537;45.594;9.294;2023-06-26T02:28:16;4.55;;;3.25;;
18818;SDS011;9537;45.594;9.294;2023-06-26T02:29:17;4.00;;;3.60;;
18818;SDS011;9537;45.594;9.294;2023-06-26T02:30:18;4.00;;;3.60;;
18818;SDS011;9537;45.594;9.294;2023-06-26T02:31:19;6.20;;;3.65;;
18818;SDS011;9537;45.594;9.294;2023-06-26T02:32:21;3.92;;;3.20;;
18818;SDS011;9537;45.594;9.294;2023-06-26T02:33:21;4.25;;;3.85;;
18818;SDS011;9537;45.594;9.294;2023-06-26T02:34:23;3.53;;;3.13;;
18818;SDS011;9537;45.594;9.294;2023-06-26T02:35:24;4.53;;;3.45;;
18818;SDS011;9537;45.594;9.294;2023-06-26T02:36:25;4.55;;;3.47;;
18818;SDS011;9537;45.594;9.294;2023-06-26T02:37:26;4.07;;;3.67;;
18818;SDS011;9537;45.594;9.294;2023-06-26T02:38:28;6.53;;;4.00;;
18818;SDS011;9537;45.594;9.294;2023-06-26T02:39:29;5.03;;;3.47;;
18818;SDS011;9537;45.594;9.294;2023-06-26T02:40:30;3.63;;;3.20;;
18818;SDS011;9537;45.594;9.294;2023-06-26T02:41:31;4.35;;;3.47;;
18818;SDS011;9537;45.594;9.294;2023-06-26T02:42:32;5.35;;;3.85;;
18818;SDS011;9537;45.594;9.294;2023-06-26T02:43:35;4.50;;;3.42;;
18818;SDS011;9537;45.594;9.294;2023-06-26T02:44:36;3.65;;;3.35;;
18818;SDS011;9537;45.594;9.294;2023-06-26T02:45:37;5.15;;;3.55;;
18818;SDS011;9537;45.594;9.294;2023-06-26T02:46:38;4.35;;;3.88;;
18818;SDS011;9537;45.594;9.294;2023-06-26T02:47:39;5.80;;;3.55;;
18818;SDS011;9537;45.594;9.294;2023-06-26T02:48:41;3.95;;;3.22;;
18818;SDS011;9537;45.594;9.294;2023-06-26T02:49:42;3.70;;;3.40;;
18818;SDS011;9537;45.594;9.294;2023-06-26T02:50:43;4.10;;;3.70;;
18818;SDS011;9537;45.594;9.294;2023-06-26T02:51:46;3.70;;;3.38;;
18818;SDS011;9537;45.594;9.294;2023-06-26T02:52:48;3.97;;;3.58;;
18818;SDS011;9537;45.594;9.294;2023-06-26T02:53:52;4.50;;;3.50;;
18818;SDS011;9537;45.594;9.294;2023-06-26T02:54:54;3.72;;;3.38;;
18818;SDS011;9537;45.594;9.294;2023-06-26T02:55:54;5.10;;;3.30;;
18818;SDS011;9537;45.594;9.294;2023-06-26T02:56:56;3.75;;;3.35;;
18818;SDS011;9537;45.594;9.294;2023-06-26T02:57:57;3.45;;;3.15;;
18818;SDS011;9537;45.594;9.294;2023-06-26T02:59:00;3.65;;;3.30;;
18818;SDS011;9537;45.594;9.294;2023-06-26T03:00:01;4.03;;;3.60;;
18818;SDS011;9537;45.594;9.294;2023-06-26T03:01:03;4.28;;;3.70;;
18818;SDS011;9537;45.594;9.294;2023-06-26T03:02:04;3.83;;;3.47;;
18818;SDS011;9537;45.594;9.294;2023-06-26T03:03:06;6.70;;;3.88;;
18818;SDS011;9537;45.594;9.294;2023-06-26T03:04:06;3.75;;;3.42;;
18818;SDS011;9537;45.594;9.294;2023-06-26T03:05:08;4.10;;;3.33;;
18818;SDS011;9537;45.594;9.294;2023-06-26T03:06:09;4.10;;;3.30;;
18818;SDS011;9537;45.594;9.294;2023-06-26T03:07:10;5.30;;;3.47;;
18818;SDS011;9537;45.594;9.294;2023-06-26T03:08:11;4.38;;;3.55;;
18818;SDS011;9537;45.594;9.294;2023-06-26T03:09:13;3.65;;;3.35;;
18818;SDS011;9537;45.594;9.294;2023-06-26T03:10:13;4.97;;;3.80;;
18818;SDS011;9537;45.594;9.294;2023-06-26T03:11:15;5.53;;;3.90;;
18818;SDS011;9537;45.594;9.294;2023-06-26T03:12:16;5.13;;;3.42;;
18818;SDS011;9537;45.594;9.294;2023-06-26T03:13:17;6.82;;;3.85;;
18818;SDS011;9537;45.594;9.294;2023-06-26T03:14:19;5.18;;;3.80;;
18818;SDS011;9537;45.594;9.294;2023-06-26T03:15:21;4.72;;;3.58;;
18818;SDS011;9537;45.594;9.294;2023-06-26T03:16:22;4.95;;;3.60;;
18818;SDS011;9537;45.594;9.294;2023-06-26T03:17:24;3.83;;;3.53;;
18818;SDS011;9537;45.594;9.294;2023-06-26T03:18:24;5.90;;;3.45;;
18818;SDS011;9537;45.594;9.294;2023-06-26T03:19:26;5.15;;;3.97;;
18818;SDS011;9537;45.594;9.294;2023-06-26T03:20:28;4.00;;;3.60;;
18818;SDS011;9537;45.594;9.294;2023-06-26T03:21:28;3.60;;;3.30;;
18818;SDS011;9537;45.594;9.294;2023-06-26T03:22:30;4.90;;;3.65;;
18818;SDS011;9537;45.594;9.294;2023-06-26T03:23:31;4.10;;;3.75;;
18818;SDS011;9537;45.594;9.294;2023-06-26T03:24:32;4.00;;;3.20;;
18818;SDS011;9537;45.594;9.294;2023-06-26T03:25:33;3.75;;;3.45;;
18818;SDS011;9537;45.594;9.294;2023-06-26T03:26:35;3.55;;;3.20;;
18818;SDS011;9537;45.594;9.294;2023-06-26T03:27:36;4.50;;;3.80;;
18818;SDS011;9537;45.594;9.294;2023-06-26T03:28:38;4.97;;;4.00;;
18818;SDS011;9537;45.594;9.294;2023-06-26T03:29:40;3.75;;;3.28;;
18818;SDS011;9537;45.594;9.294;2023-06-26T03:30:41;4.45;;;3.50;;
18818;SDS011;9537;45.594;9.294;2023-06-26T03:31:42;4.10;;;3.70;;
18818;SDS011;9537;45.594;9.294;2023-06-26T03:32:44;5.05;;;4.10;;
18818;SDS011;9537;45.594;9.294;2023-06-26T03:33:44;3.88;;;3.47;;
18818;SDS011;9537;45.594;9.294;2023-06-26T03:34:46;6.40;;;3.72;;
18818;SDS011;9537;45.594;9.294;2023-06-26T03:35:49;3.95;;;3.50;;
18818;SDS011;9537;45.594;9.294;2023-06-26T03:36:51;3.97;;;3.55;;
18818;SDS011;9537;45.594;9.294;2023-06-26T03:37:53;4.88;;;3.42;;
18818;SDS011;9537;45.594;9.294;2023-06-26T03:38:54;5.22;;;3.70;;
18818;SDS011;9537;45.594;9.294;2023-06-26T03:39:57;4.88;;;3.60;;
18818;SDS011;9537;45.594;9.294;2023-06-26T03:40:57;3.78;;;3.45;;
18818;SDS011;9537;45.594;9.294;2023-06-26T03:41:59;4.20;;;3.80;;
18818;SDS011;9537;45.594;9.294;2023-06-26T03:43:01;6.25;;;3.65;;
18818;SDS011;9537;45.594;9.294;2023-06-26T03:44:03;3.83;;;3.50;;
18818;SDS011;9537;45.594;9.294;2023-06-26T03:45:06;5.15;;;3.65;;
18818;SDS011;9537;45.594;9.294;2023-06-26T03:46:07;4.93;;;3.47;;
18818;SDS011;9537;45.594;9.294;2023-06-26T03:47:09;4.68;;;3.78;;
18818;SDS011;9537;45.594;9.294;2023-06-26T03:48:10;4.60;;;3.70;;
18818;SDS011;9537;45.594;9.294;2023-06-26T03:49:11;5.32;;;4.00;;
18818;SDS011;9537;45.594;9.294;2023-06-26T03:50:12;3.80;;;3.40;;
18818;SDS011;9537;45.594;9.294;2023-06-26T03:51:14;3.53;;;3.15;;
18818;SDS011;9537;45.594;9.294;2023-06-26T03:52:14;4.47;;;3.70;;
18818;SDS011;9537;45.594;9.294;2023-06-26T03:53:16;4.65;;;3.85;;
18818;SDS011;9537;45.594;9.294;2023-06-26T03:54:17;4.57;;;3.65;;
18818;SDS011;9537;45.594;9.294;2023-06-26T03:55:19;4.25;;;3.65;;
18818;SDS011;9537;45.594;9.294;2023-06-26T03:56:19;6.38;;;3.28;;
18818;SDS011;9537;45.594;9.294;2023-06-26T03:57:21;11.43;;;3.42;;
18818;SDS011;9537;45.594;9.294;2023-06-26T03:58:22;14.07;;;4.47;;
18818;SDS011;9537;45.594;9.294;2023-06-26T03:59:25;15.40;;;4.20;;
18818;SDS011;9537;45.594;9.294;2023-06-26T04:00:29;20.80;;;4.72;;
18818;SDS011;9537;45.594;9.294;2023-06-26T04:01:31;16.30;;;4.65;;
18818;SDS011;9537;45.594;9.294;2023-06-26T04:02:32;15.68;;;4.95;;
18818;SDS011;9537;45.594;9.294;2023-06-26T04:03:34;19.90;;;5.03;;
18818;SDS011;9537;45.594;9.294;2023-06-26T04:04:34;23.92;;;4.35;;
18818;SDS011;9537;45.594;9.294;2023-06-26T04:05:36;14.75;;;4.43;;
18818;SDS011;9537;45.594;9.294;2023-06-26T04:06:37;13.50;;;4.20;;
18818;SDS011;9537;45.594;9.294;2023-06-26T04:07:39;13.65;;;4.13;;
18818;SDS011;9537;45.594;9.294;2023-06-26T04:08:40;8.93;;;3.92;;
18818;SDS011;9537;45.594;9.294;2023-06-26T04:09:42;7.30;;;3.72;;
18818;SDS011;9537;45.594;9.294;2023-06-26T04:10:42;6.72;;;3.60;;
18818;SDS011;9537;45.594;9.294;2023-06-26T04:11:45;6.65;;;3.50;;
18818;SDS011;9537;45.594;9.294;2023-06-26T04:12:46;5.30;;;3.80;;
18818;SDS011;9537;45.594;9.294;2023-06-26T04:13:48;5.47;;;3.60;;
18818;SDS011;9537;45.594;9.294;2023-06-26T04:14:48;3.80;;;3.40;;
18818;SDS011;9537;45.594;9.294;2023-06-26T04:15:51;5.60;;;3.70;;
18818;SDS011;9537;45.594;9.294;2023-06-26T04:16:52;9.23;;;4.10;;
18818;SDS011;9537;45.594;9.294;2023-06-26T04:17:54;5.78;;;3.78;;
18818;SDS011;9537;45.594;9.294;2023-06-26T04:18:54;6.03;;;3.45;;
18818;SDS011;9537;45.594;9.294;2023-06-26T04:19:56;6.15;;;4.28;;
18818;SDS011;9537;45.594;9.294;2023-06-26T04:21:06;5.30;;;3.60;;
18818;SDS011;9537;45.594;9.294;2023-06-26T04:22:08;5.07;;;4.18;;
18818;SDS011;9537;45.594;9.294;2023-06-26T04:23:10;4.40;;;3.60;;
18818;SDS011;9537;45.594;9.294;2023-06-26T04:24:11;4.00;;;3.60;;
18818;SDS011;9537;45.594;9.294;2023-06-26T04:25:12;5.55;;;3.63;;
18818;SDS011;9537;45.594;9.294;2023-06-26T04:26:13;7.82;;;3.80;;
18818;SDS011;9537;45.594;9.294;2023-06-26T04:27:15;5.15;;;3.22;;
18818;SDS011;9537;45.594;9.294;2023-06-26T04:28:16;6.40;;;3.78;;
18818;SDS011;9537;45.594;9.294;2023-06-26T04:29:18;6.88;;;4.00;;
18818;SDS011;9537;45.594;9.294;2023-06-26T04:30:19;4.72;;;3.70;;
18818;SDS011;9537;45.594;9.294;2023-06-26T04:31:22;6.05;;;3.45;;
18818;SDS011;9537;45.594;9.294;2023-06-26T04:32:22;7.35;;;4.10;;
18818;SDS011;9537;45.594;9.294;2023-06-26T04:33:24;4.90;;;3.58;;
18818;SDS011;9537;45.594;9.294;2023-06-26T04:34:28;4.30;;;3.58;;
18818;SDS011;9537;45.594;9.294;2023-06-26T04:35:32;6.93;;;3.72;;
18818;SDS011;9537;45.594;9.294;2023-06-26T04:36:36;6.88;;;3.45;;
18818;SDS011;9537;45.594;9.294;2023-06-26T04:37:39;3.97;;;3.35;;
18818;SDS011;9537;45.594;9.294;2023-06-26T04:38:40;4.10;;;3.70;;
18818;SDS011;9537;45.594;9.294;2023-06-26T04:39:41;3.88;;;3.47;;
18818;SDS011;9537;45.594;9.294;2023-06-26T04:40:42;6.93;;;3.97;;
18818;SDS011;9537;45.594;9.294;2023-06-26T04:41:44;4.43;;;3.67;;
18818;SDS011;9537;45.594;9.294;2023-06-26T04:42:45;4.55;;;3.70;;
18818;SDS011;9537;45.594;9.294;2023-06-26T04:43:47;4.07;;;3.67;;
18818;SDS011;9537;45.594;9.294;2023-06-26T04:44:48;4.78;;;3.25;;
18818;SDS011;9537;45.594;9.294;2023-06-26T04:45:49;4.78;;;3.42;;
18818;SDS011;9537;45.594;9.294;2023-06-26T04:46:51;4.13;;;3.40;;
18818;SDS011;9537;45.594;9.294;2023-06-26T04:47:56;5.65;;;3.60;;
18818;SDS011;9537;45.594;9.294;2023-06-26T04:48:57;4.10;;;3.58;;
18818;SDS011;9537;45.594;9.294;2023-06-26T04:49:58;3.92;;;3.38;;
18818;SDS011;9537;45.594;9.294;2023-06-26T04:50:59;4.30;;;3.10;;
18818;SDS011;9537;45.594;9.294;2023-06-26T04:52:04;5.70;;;3.40;;
18818;SDS011;9537;45.594;9.294;2023-06-26T04:53:05;7.47;;;3.95;;
18818;SDS011;9537;45.594;9.294;2023-06-26T04:54:07;5.80;;;3.65;;
18818;SDS011;9537;45.594;9.294;2023-06-26T04:55:08;7.93;;;4.00;;
18818;SDS011;9537;45.594;9.294;2023-06-26T04:56:10;6.80;;;3.70;;
18818;SDS011;9537;45.594;9.294;2023-06-26T04:57:11;4.07;;;3.65;;
18818;SDS011;9537;45.594;9.294;2023-06-26T04:58:13;5.30;;;4.00;;
18818;SDS011;9537;45.594;9.294;2023-06-26T04:59:13;4.78;;;3.30;;
18818;SDS011;9537;45.594;9.294;2023-06-26T05:00:15;5.80;;;3.75;;
18818;SDS011;9537;45.594;9.294;2023-06-26T05:01:16;6.70;;;3.65;;
18818;SDS011;9537;45.594;9.294;2023-06-26T05:02:19;5.55;;;3.67;;
18818;SDS011;9537;45.594;9.294;2023-06-26T05:03:21;6.68;;;3.53;;
18818;SDS011;9537;45.594;9.294;2023-06-26T05:04:23;4.55;;;3.40;;
18818;SDS011;9537;45.594;9.294;2023-06-26T05:05:24;6.53;;;3.75;;
18818;SDS011;9537;45.594;9.294;2023-06-26T05:06:26;5.70;;;3.20;;
18818;SDS011;9537;45.594;9.294;2023-06-26T05:07:26;6.60;;;3.60;;
18818;SDS011;9537;45.594;9.294;2023-06-26T05:08:28;4.97;;;3.63;;
18818;SDS011;9537;45.594;9.294;2023-06-26T05:09:29;7.28;;;3.72;;
18818;SDS011;9537;45.594;9.294;2023-06-26T05:10:30;4.65;;;3.58;;
18818;SDS011;9537;45.594;9.294;2023-06-26T05:11:31;4.82;;;3.55;;
18818;SDS011;9537;45.594;9.294;2023-06-26T05:12:33;4.70;;;3.53;;
18818;SDS011;9537;45.594;9.294;2023-06-26T05:13:34;5.50;;;3.50;;
18818;SDS011;9537;45.594;9.294;2023-06-26T05:14:35;5.85;;;4.03;;
18818;SDS011;9537;45.594;9.294;2023-06-26T05:15:36;6.30;;;3.78;;
18818;SDS011;9537;45.594;9.294;2023-06-26T05:16:38;4.93;;;3.97;;
18818;SDS011;9537;45.594;9.294;2023-06-26T05:17:41;5.35;;;3.83;;
18818;SDS011;9537;45.594;9.294;2023-06-26T05:18:41;7.53;;;3.75;;
18818;SDS011;9537;45.594;9.294;2023-06-26T05:19:46;4.97;;;3.83;;
18818;SDS011;9537;45.594;9.294;2023-06-26T05:20:47;4.10;;;3.70;;
18818;SDS011;9537;45.594;9.294;2023-06-26T05:21:49;4.80;;;3.88;;
18818;SDS011;9537;45.594;9.294;2023-06-26T05:22:53;4.13;;;3.50;;
18818;SDS011;9537;45.594;9.294;2023-06-26T05:23:56;5.22;;;4.20;;
18818;SDS011;9537;45.594;9.294;2023-06-26T05:24:58;3.58;;;3.20;;
18818;SDS011;9537;45.594;9.294;2023-06-26T05:26:01;5.45;;;3.85;;
18818;SDS011;9537;45.594;9.294;2023-06-26T05:27:04;5.57;;;3.92;;
18818;SDS011;9537;45.594;9.294;2023-06-26T05:28:07;5.35;;;3.88;;
18818;SDS011;9537;45.594;9.294;2023-06-26T05:29:10;4.60;;;3.50;;
18818;SDS011;9537;45.594;9.294;2023-06-26T05:30:13;6.43;;;3.78;;
18818;SDS011;9537;45.594;9.294;2023-06-26T05:31:14;7.32;;;3.90;;
18818;SDS011;9537;45.594;9.294;2023-06-26T05:32:16;5.80;;;3.90;;
18818;SDS011;9537;45.594;9.294;2023-06-26T05:33:21;4.93;;;3.85;;
18818;SDS011;9537;45.594;9.294;2023-06-26T05:34:25;6.40;;;4.03;;
18818;SDS011;9537;45.594;9.294;2023-06-26T05:35:28;12.77;;;3.58;;
18818;SDS011;9537;45.594;9.294;2023-06-26T05:36:31;7.82;;;3.88;;
18818;SDS011;9537;45.594;9.294;2023-06-26T05:37:35;5.57;;;4.07;;
18818;SDS011;9537;45.594;9.294;2023-06-26T05:38:37;4.72;;;3.90;;
18818;SDS011;9537;45.594;9.294;2023-06-26T05:39:39;6.07;;;3.72;;
18818;SDS011;9537;45.594;9.294;2023-06-26T05:40:40;4.10;;;3.67;;
18818;SDS011;9537;45.594;9.294;2023-06-26T05:41:44;3.95;;;3.53;;
18818;SDS011;9537;45.594;9.294;2023-06-26T05:42:45;4.80;;;3.58;;
18818;SDS011;9537;45.594;9.294;2023-06-26T05:43:48;7.35;;;3.50;;
18818;SDS011;9537;45.594;9.294;2023-06-26T05:44:48;3.90;;;3.42;;
18818;SDS011;9537;45.594;9.294;2023-06-26T05:45:50;4.15;;;3.63;;
18818;SDS011;9537;45.594;9.294;2023-06-26T05:46:51;5.25;;;4.07;;
18818;SDS011;9537;45.594;9.294;2023-06-26T05:47:52;5.95;;;4.05;;
18818;SDS011;9537;45.594;9.294;2023-06-26T05:48:56;4.32;;;3.67;;
18818;SDS011;9537;45.594;9.294;2023-06-26T05:49:56;4.50;;;4.00;;
18818;SDS011;9537;45.594;9.294;2023-06-26T05:50:59;6.63;;;4.18;;
18818;SDS011;9537;45.594;9.294;2023-06-26T05:52:00;4.63;;;3.28;;
18818;SDS011;9537;45.594;9.294;2023-06-26T05:53:02;4.05;;;3.65;;
18818;SDS011;9537;45.594;9.294;2023-06-26T05:54:03;4.93;;;3.50;;
18818;SDS011;9537;45.594;9.294;2023-06-26T05:55:06;5.22;;;4.03;;
18818;SDS011;9537;45.594;9.294;2023-06-26T05:56:07;10.05;;;4.30;;
18818;SDS011;9537;45.594;9.294;2023-06-26T05:57:10;4.75;;;3.53;;
18818;SDS011;9537;45.594;9.294;2023-06-26T05:58:13;6.50;;;3.55;;
18818;SDS011;9537;45.594;9.294;2023-06-26T05:59:17;3.38;;;3.08;;
18818;SDS011;9537;45.594;9.294;2023-06-26T06:00:20;7.78;;;3.90;;
18818;SDS011;9537;45.594;9.294;2023-06-26T06:01:21;4.93;;;3.63;;
18818;SDS011;9537;45.594;9.294;2023-06-26T06:02:23;5.00;;;3.95;;
18818;SDS011;9537;45.594;9.294;2023-06-26T06:03:24;7.05;;;3.70;;
18818;SDS011;9537;45.594;9.294;2023-06-26T06:04:27;4.38;;;3.97;;
18818;SDS011;9537;45.594;9.294;2023-06-26T06:05:28;4.55;;;3.47;;
18818;SDS011;9537;45.594;9.294;2023-06-26T06:06:30;6.82;;;3.67;;
18818;SDS011;9537;45.594;9.294;2023-06-26T06:07:31;5.60;;;3.53;;
18818;SDS011;9537;45.594;9.294;2023-06-26T06:08:33;4.68;;;3.50;;
18818;SDS011;9537;45.594;9.294;2023-06-26T06:09:35;4.60;;;3.70;;
18818;SDS011;9537;45.594;9.294;2023-06-26T06:10:35;6.53;;;3.78;;
18818;SDS011;9537;45.594;9.294;2023-06-26T06:11:37;6.05;;;3.40;;
18818;SDS011;9537;45.594;9.294;2023-06-26T06:12:38;5.75;;;3.33;;
18818;SDS011;9537;45.594;9.294;2023-06-26T06:13:40;5.93;;;4.03;;
18818;SDS011;9537;45.594;9.294;2023-06-26T06:14:40;7.32;;;4.30;;
18818;SDS011;9537;45.594;9.294;2023-06-26T06:15:42;6.63;;;4.40;;
18818;SDS011;9537;45.594;9.294;2023-06-26T06:16:43;5.30;;;4.22;;
18818;SDS011;9537;45.594;9.294;2023-06-26T06:17:45;6.82;;;4.20;;
18818;SDS011;9537;45.594;9.294;2023-06-26T06:18:46;6.07;;;4.18;;
18818;SDS011;9537;45.594;9.294;2023-06-26T06:19:48;6.25;;;4.07;;